Time;durP1;ratioP1;P1;durP2;ratioP2;P2;SDS_P1;SDS_P2;PMS_P1;PMS_P2;Temp;Humidity;BMP_temperature;BMP_pressure;BME280_temperature;BME280_humidity;BME280_pressure;Samples;Min_cycle;Max_cycle;Signal;HPM_P1;HPM_P2
2022/03/03 00:00:01;;;;;;;69.22;21.08;;;2.90;63.40;;;;;;4965315;28;20058;-70
2022/03/03 00:02:38;;;;;;;62.05;22.35;;;3.00;63.10;;;;;;4987533;28;21075;-70
2022/03/03 00:05:06;;;;;;;65.55;21.70;;;2.80;63.60;;;;;;4985189;28;20049;-70
2022/03/03 00:07:33;;;;;;;62.05;20.55;;;2.80;63.80;;;;;;4980436;28;20685;-70
2022/03/03 00:10:00;;;;;;;53.22;21.02;;;2.70;63.90;;;;;;4985045;28;20041;-70
2022/03/03 00:12:27;;;;;;;59.92;20.55;;;2.60;65.00;;;;;;4979935;28;20413;-70
2022/03/03 00:14:55;;;;;;;61.35;21.08;;;2.60;64.40;;;;;;4985813;28;20515;-70
2022/03/03 00:17:22;;;;;;;66.22;22.60;;;2.80;64.00;;;;;;4968662;28;20065;-70
2022/03/03 00:19:49;;;;;;;82.97;22.35;;;2.90;63.10;;;;;;4998827;28;20049;-70
2022/03/03 00:22:16;;;;;;;71.60;21.73;;;2.90;62.80;;;;;;5001940;28;20050;-71
2022/03/03 00:24:44;;;;;;;64.78;19.95;;;2.80;63.30;;;;;;4983665;28;20843;-70
2022/03/03 00:27:11;;;;;;;61.22;22.33;;;2.70;64.30;;;;;;4984674;28;20038;-71
2022/03/03 00:29:38;;;;;;;59.33;20.95;;;2.70;63.40;;;;;;4984575;28;20060;-71
2022/03/03 00:32:06;;;;;;;53.33;19.73;;;2.50;64.50;;;;;;4981869;28;20120;-70
2022/03/03 00:34:33;;;;;;;64.57;20.20;;;2.60;63.90;;;;;;4985705;28;20044;-70
2022/03/03 00:37:00;;;;;;;57.25;18.25;;;2.30;64.50;;;;;;4988513;28;20128;-70
2022/03/03 00:39:27;;;;;;;51.70;18.52;;;2.40;65.20;;;;;;4987344;28;20046;-70
2022/03/03 00:41:54;;;;;;;48.40;18.85;;;2.60;63.70;;;;;;4987260;28;20070;-70
2022/03/03 00:44:21;;;;;;;51.97;19.23;;;2.60;64.10;;;;;;4971085;28;20740;-70
2022/03/03 00:46:48;;;;;;;60.83;19.83;;;2.50;64.20;;;;;;4988658;28;20046;-70
2022/03/03 00:49:16;;;;;;;49.72;18.33;;;2.60;64.50;;;;;;4984360;28;20046;-70
2022/03/03 00:51:43;;;;;;;62.97;19.83;;;2.50;64.40;;;;;;5004545;28;20040;-70
2022/03/03 00:54:10;;;;;;;50.10;15.63;;;2.40;64.90;;;;;;5006683;28;20394;-70
2022/03/03 00:56:37;;;;;;;40.72;14.52;;;2.40;65.50;;;;;;4989974;28;20084;-70
2022/03/03 00:59:04;;;;;;;51.33;15.95;;;2.20;64.90;;;;;;4991636;28;20100;-70
2022/03/03 01:01:31;;;;;;;36.10;14.95;;;2.30;65.20;;;;;;5005286;28;21081;-70
2022/03/03 01:03:58;;;;;;;40.45;16.30;;;2.30;65.30;;;;;;5003589;28;20050;-70
2022/03/03 01:06:26;;;;;;;36.20;13.20;;;2.30;64.80;;;;;;4990463;28;20452;-70
2022/03/03 01:08:53;;;;;;;33.88;13.73;;;2.30;63.90;;;;;;4991011;28;20069;-70
2022/03/03 01:11:21;;;;;;;39.22;14.57;;;2.30;64.30;;;;;;4991244;28;20535;-70
2022/03/03 01:13:48;;;;;;;36.10;14.13;;;2.30;64.40;;;;;;4990319;28;20046;-70
2022/03/03 01:16:15;;;;;;;38.55;12.45;;;2.50;64.10;;;;;;4991799;28;20060;-70
2022/03/03 01:18:42;;;;;;;37.35;13.27;;;2.40;64.70;;;;;;4992302;28;21279;-71
2022/03/03 01:21:09;;;;;;;36.97;13.40;;;2.30;64.80;;;;;;4991758;28;20053;-70
2022/03/03 01:23:36;;;;;;;37.60;13.38;;;2.20;64.70;;;;;;4994185;28;20054;-70
2022/03/03 01:26:04;;;;;;;31.35;12.55;;;2.30;64.60;;;;;;4992858;28;20057;-69
2022/03/03 01:28:31;;;;;;;31.60;12.45;;;2.30;64.60;;;;;;4987263;28;20215;-70
2022/03/03 01:30:58;;;;;;;30.55;12.48;;;2.20;65.00;;;;;;4990765;28;20401;-70
2022/03/03 01:33:25;;;;;;;39.10;13.38;;;2.10;65.00;;;;;;5001172;28;20927;-70
2022/03/03 01:35:52;;;;;;;37.30;12.40;;;1.90;65.60;;;;;;4975149;28;20091;-71
2022/03/03 01:38:20;;;;;;;32.38;12.23;;;1.90;65.60;;;;;;4993733;28;20468;-70
2022/03/03 01:40:47;;;;;;;34.17;11.93;;;1.80;66.10;;;;;;5003854;28;20069;-70
2022/03/03 01:43:14;;;;;;;32.95;13.32;;;1.90;66.80;;;;;;4990442;28;20053;-71
2022/03/03 01:45:41;;;;;;;32.05;11.15;;;2.00;65.80;;;;;;4986657;28;20560;-70
2022/03/03 01:48:08;;;;;;;33.90;12.23;;;2.20;65.00;;;;;;4989990;28;20042;-70
2022/03/03 01:50:35;;;;;;;30.70;11.98;;;2.00;65.80;;;;;;4990007;28;20049;-70
2022/03/03 01:53:03;;;;;;;32.15;13.18;;;1.90;66.10;;;;;;4972232;28;20060;-70
2022/03/03 01:55:32;;;;;;;42.90;13.70;;;1.90;66.00;;;;;;4991278;28;20522;-70
2022/03/03 01:58:02;;;;;;;38.13;14.70;;;2.20;65.30;;;;;;4987907;28;20046;-70
2022/03/03 02:00:30;;;;;;;41.65;13.35;;;2.10;65.70;;;;;;4990578;28;20042;-70
2022/03/03 02:02:57;;;;;;;38.83;13.27;;;1.90;66.10;;;;;;5001187;28;20141;-70
2022/03/03 02:05:24;;;;;;;35.50;11.57;;;1.70;66.60;;;;;;4989551;28;20077;-70
2022/03/03 02:07:51;;;;;;;32.53;12.38;;;1.60;67.20;;;;;;5001799;28;20132;-70
2022/03/03 02:10:18;;;;;;;33.88;11.32;;;1.40;68.40;;;;;;4986287;28;20050;-70
2022/03/03 02:12:45;;;;;;;28.13;11.25;;;1.50;68.30;;;;;;4972308;28;20038;-70
2022/03/03 02:15:20;;;;;;;29.42;11.18;;;1.40;68.60;;;;;;4991180;28;20038;-70
2022/03/03 02:17:47;;;;;;;26.48;9.82;;;1.20;68.30;;;;;;4986664;28;20042;-70
2022/03/03 02:20:22;;;;;;;26.52;10.50;;;1.00;69.20;;;;;;4986236;28;20077;-69
2022/03/03 02:22:51;;;;;;;26.73;10.63;;;0.90;69.80;;;;;;5005048;28;20053;-70
2022/03/03 02:25:18;;;;;;;29.05;10.85;;;0.80;70.70;;;;;;4989342;28;20150;-70
2022/03/03 02:27:45;;;;;;;31.17;10.63;;;0.80;70.70;;;;;;4990814;28;20164;-70
2022/03/03 02:30:14;;;;;;;28.23;9.38;;;1.00;70.50;;;;;;4991942;28;20058;-70
2022/03/03 02:32:42;;;;;;;29.52;10.40;;;1.00;70.50;;;;;;4987667;28;20180;-70
2022/03/03 02:35:09;;;;;;;25.98;10.52;;;1.30;70.10;;;;;;4988967;28;20508;-70
2022/03/03 02:37:42;;;;;;;28.50;10.55;;;1.40;69.00;;;;;;4987515;28;22171;-70
2022/03/03 02:40:12;;;;;;;33.22;10.77;;;1.40;68.40;;;;;;4988163;28;20132;-70
2022/03/03 02:42:39;;;;;;;31.52;10.50;;;1.50;67.60;;;;;;4990211;28;20119;-70
2022/03/03 02:45:07;;;;;;;26.15;10.90;;;1.20;68.70;;;;;;4990842;28;20111;-69
2022/03/03 02:47:40;;;;;;;27.17;10.65;;;1.00;69.70;;;;;;4987623;28;20506;-70
2022/03/03 02:50:09;;;;;;;23.75;10.32;;;1.20;69.60;;;;;;4988984;28;20042;-70
2022/03/03 02:52:36;;;;;;;31.70;10.77;;;1.10;69.50;;;;;;4989886;28;20609;-70
2022/03/03 02:55:05;;;;;;;28.25;11.98;;;1.20;69.30;;;;;;4988603;28;20038;-70
2022/03/03 03:00:19;;;;;;;28.17;10.35;;;1.10;69.60;;;;;;4989568;28;20081;-70
2022/03/03 03:02:46;;;;;;;30.35;10.50;;;1.20;69.20;;;;;;5003941;28;20093;-70
2022/03/03 03:05:13;;;;;;;31.50;9.95;;;1.20;69.50;;;;;;4986902;28;20710;-70
2022/03/03 03:07:40;;;;;;;25.02;9.88;;;1.40;68.70;;;;;;4986132;28;20116;-71
2022/03/03 03:10:07;;;;;;;29.58;11.38;;;1.30;68.90;;;;;;4987673;28;20042;-71
2022/03/03 03:12:34;;;;;;;25.25;10.75;;;1.20;68.60;;;;;;4989948;28;20113;-71
2022/03/03 03:15:01;;;;;;;34.38;11.10;;;1.30;69.00;;;;;;4992454;28;20529;-71
2022/03/03 03:17:29;;;;;;;32.78;13.13;;;1.10;68.30;;;;;;4988937;28;20045;-70
2022/03/03 03:19:56;;;;;;;35.10;12.18;;;1.20;69.30;;;;;;5004544;28;20046;-70
2022/03/03 03:22:23;;;;;;;31.55;11.02;;;1.20;68.40;;;;;;4990892;28;20513;-70
2022/03/03 03:24:51;;;;;;;32.08;11.55;;;1.10;69.60;;;;;;4988240;28;20046;-70
2022/03/03 03:27:18;;;;;;;36.50;12.35;;;1.10;69.10;;;;;;4985975;28;21957;-70
2022/03/03 03:29:45;;;;;;;33.15;12.50;;;1.20;68.40;;;;;;4987975;28;20058;-70
2022/03/03 03:32:12;;;;;;;36.65;12.35;;;1.20;68.10;;;;;;4992109;28;20054;-70
2022/03/03 03:34:39;;;;;;;41.25;13.13;;;1.20;68.50;;;;;;5009774;28;20037;-70
2022/03/03 03:37:06;;;;;;;30.60;11.43;;;1.40;67.90;;;;;;4974206;28;20058;-70
2022/03/03 03:39:33;;;;;;;35.72;13.23;;;1.10;68.10;;;;;;4992141;28;20050;-70
2022/03/03 03:42:00;;;;;;;33.38;12.13;;;1.00;68.90;;;;;;4990571;28;20057;-71
2022/03/03 03:44:27;;;;;;;32.10;11.65;;;0.80;69.20;;;;;;4988459;28;20400;-70
2022/03/03 03:46:54;;;;;;;35.35;11.85;;;0.70;69.80;;;;;;4972365;28;20061;-70
2022/03/03 03:49:21;;;;;;;30.88;11.55;;;0.80;69.80;;;;;;4974891;28;20057;-70
2022/03/03 03:51:48;;;;;;;28.90;11.52;;;0.80;70.00;;;;;;4991901;28;20073;-70
2022/03/03 03:54:15;;;;;;;30.13;11.15;;;0.90;69.40;;;;;;4976027;28;20100;-71
2022/03/03 03:56:42;;;;;;;32.75;11.98;;;0.90;69.70;;;;;;4990894;28;20527;-70
2022/03/03 03:59:09;;;;;;;30.88;10.77;;;0.90;69.80;;;;;;4990214;28;20061;-70
2022/03/03 04:01:36;;;;;;;34.05;11.20;;;0.70;69.90;;;;;;4991289;28;20069;-70
2022/03/03 04:04:03;;;;;;;31.30;11.15;;;0.70;69.30;;;;;;4988785;28;20058;-70
2022/03/03 04:06:32;;;;;;;29.63;11.68;;;0.70;70.40;;;;;;4992097;28;20096;-70
2022/03/03 04:08:59;;;;;;;30.08;10.80;;;0.70;70.00;;;;;;5008775;28;20058;-70
2022/03/03 04:11:26;;;;;;;30.88;12.15;;;0.80;69.80;;;;;;5004941;28;20458;-70
2022/03/03 04:13:56;;;;;;;31.30;10.80;;;0.70;70.10;;;;;;4993083;28;20285;-71
2022/03/03 04:16:27;;;;;;;29.83;11.32;;;0.60;70.70;;;;;;4992110;28;20034;-70
2022/03/03 04:18:54;;;;;;;30.00;11.30;;;0.70;70.90;;;;;;5002929;28;20061;-70
2022/03/03 04:21:21;;;;;;;32.80;12.98;;;0.60;70.70;;;;;;4974654;28;20593;-70
2022/03/03 04:23:48;;;;;;;29.90;11.35;;;0.60;70.30;;;;;;5005093;28;20050;-70
2022/03/03 04:26:16;;;;;;;36.58;12.20;;;0.70;70.70;;;;;;4990802;28;20058;-71
2022/03/03 04:28:42;;;;;;;28.98;11.15;;;0.80;70.30;;;;;;4990861;28;20204;-71
2022/03/03 04:31:10;;;;;;;31.30;11.30;;;0.80;70.20;;;;;;4991453;28;20042;-71
2022/03/03 04:33:37;;;;;;;29.20;11.07;;;0.70;69.80;;;;;;4988344;28;20168;-71
2022/03/03 04:36:05;;;;;;;28.38;10.88;;;0.60;70.50;;;;;;4988431;28;20056;-70
2022/03/03 04:38:32;;;;;;;33.28;11.35;;;0.60;70.40;;;;;;4992006;28;20046;-71
2022/03/03 04:40:59;;;;;;;30.58;10.63;;;0.80;70.60;;;;;;4989015;28;20053;-70
2022/03/03 04:43:26;;;;;;;33.35;10.60;;;0.80;70.00;;;;;;4990359;28;20049;-70
2022/03/03 04:45:53;;;;;;;30.42;10.95;;;0.70;70.20;;;;;;4987446;28;20508;-70
2022/03/03 04:48:21;;;;;;;32.58;11.82;;;0.70;70.90;;;;;;4992399;28;20050;-70
2022/03/03 04:50:48;;;;;;;32.03;11.77;;;0.70;70.20;;;;;;5009253;28;20497;-71
2022/03/03 04:53:15;;;;;;;31.13;10.55;;;0.60;69.90;;;;;;4970730;28;20053;-70
2022/03/03 04:55:43;;;;;;;31.90;12.57;;;0.50;70.30;;;;;;4991733;28;20457;-71
2022/03/03 04:58:10;;;;;;;30.58;11.20;;;0.50;70.70;;;;;;4993281;28;20058;-71
2022/03/03 05:00:37;;;;;;;35.45;13.75;;;0.50;70.80;;;;;;4989926;28;20168;-71
2022/03/03 05:03:04;;;;;;;32.92;12.95;;;0.50;70.40;;;;;;4990212;28;20318;-71
2022/03/03 05:05:31;;;;;;;34.42;11.75;;;0.40;70.70;;;;;;4990335;28;20054;-71
2022/03/03 05:07:58;;;;;;;34.80;12.52;;;0.30;71.30;;;;;;4992848;28;20065;-71
2022/03/03 05:10:25;;;;;;;28.98;11.05;;;0.40;71.00;;;;;;4989940;28;20088;-71
2022/03/03 05:12:52;;;;;;;34.75;12.65;;;0.10;71.90;;;;;;4991462;28;20046;-71
2022/03/03 05:15:19;;;;;;;33.13;13.40;;;0.10;72.50;;;;;;4988324;28;20579;-71
2022/03/03 05:17:51;;;;;;;40.95;15.63;;;0.20;72.00;;;;;;4982378;28;20049;-71
2022/03/03 05:20:18;;;;;;;39.10;14.52;;;0.20;71.80;;;;;;4988663;28;20073;-71
2022/03/03 05:22:45;;;;;;;38.10;14.63;;;0.40;71.50;;;;;;4991016;28;20044;-71
2022/03/03 05:25:12;;;;;;;39.42;13.48;;;0.30;71.10;;;;;;4989669;28;20058;-71
2022/03/03 05:27:40;;;;;;;33.85;13.55;;;0.30;71.20;;;;;;4988206;28;20042;-70
2022/03/03 05:30:09;;;;;;;33.28;13.25;;;0.30;70.80;;;;;;4988735;28;20056;-71
2022/03/03 05:32:36;;;;;;;32.30;11.77;;;0.20;70.90;;;;;;5004097;28;20057;-71
2022/03/03 05:35:04;;;;;;;34.85;13.98;;;0.40;70.50;;;;;;4988825;28;20120;-71
2022/03/03 05:37:32;;;;;;;31.52;11.98;;;0.40;70.60;;;;;;4986738;28;20108;-71
2022/03/03 05:40:00;;;;;;;36.55;12.82;;;0.50;70.00;;;;;;4989030;28;20053;-71
2022/03/03 05:42:27;;;;;;;35.03;12.70;;;0.50;69.70;;;;;;4991832;28;21506;-71
2022/03/03 05:44:54;;;;;;;38.70;13.35;;;0.50;70.30;;;;;;4990581;28;20053;-71
2022/03/03 05:47:24;;;;;;;32.25;12.75;;;0.50;70.10;;;;;;4988332;28;20073;-71
2022/03/03 05:49:54;;;;;;;34.58;12.38;;;0.60;69.70;;;;;;5002043;28;20050;-71
2022/03/03 05:52:21;;;;;;;30.85;12.77;;;0.60;70.30;;;;;;4971254;28;20052;-71
2022/03/03 05:54:48;;;;;;;29.20;12.43;;;0.70;69.50;;;;;;4991986;28;20077;-71
2022/03/03 05:57:37;;;;;;;32.42;11.93;;;0.80;69.10;;;;;;5001434;28;20077;-71
2022/03/03 06:00:09;;;;;;;34.92;12.68;;;0.80;69.40;;;;;;4989320;28;20406;-71
2022/03/03 06:02:50;;;;;;;32.03;12.40;;;0.90;69.00;;;;;;4989316;28;20045;-71
2022/03/03 06:05:38;;;;;;;31.67;12.38;;;0.80;68.50;;;;;;4987771;28;20068;-71
2022/03/03 06:08:06;;;;;;;34.83;12.35;;;0.70;69.60;;;;;;5001107;28;20112;-71
2022/03/03 06:10:35;;;;;;;33.53;13.30;;;0.80;69.10;;;;;;4986633;28;20676;-71
2022/03/03 06:13:24;;;;;;;40.42;14.90;;;1.00;68.50;;;;;;4988416;28;20046;-71
2022/03/03 06:15:52;;;;;;;45.65;16.02;;;0.60;70.30;;;;;;4992500;28;20081;-71
2022/03/03 06:18:24;;;;;;;61.03;20.30;;;0.80;70.60;;;;;;4989857;28;20049;-71
2022/03/03 06:20:52;;;;;;;61.40;22.58;;;0.80;70.40;;;;;;4990958;28;20050;-71
2022/03/03 06:23:20;;;;;;;53.92;19.77;;;0.70;70.90;;;;;;4988102;28;20046;-71
2022/03/03 06:26:06;;;;;;;47.08;17.33;;;0.90;70.40;;;;;;4987437;28;20038;-70
2022/03/03 06:28:33;;;;;;;38.67;17.08;;;0.80;70.00;;;;;;4987710;28;20049;-71
2022/03/03 06:31:01;;;;;;;46.17;16.83;;;0.80;70.00;;;;;;4986968;28;20129;-71
2022/03/03 06:33:28;;;;;;;46.03;17.85;;;0.90;70.60;;;;;;4989293;28;20057;-71
2022/03/03 06:35:55;;;;;;;44.92;17.88;;;1.00;70.80;;;;;;4988755;28;20125;-70
2022/03/03 06:38:23;;;;;;;46.17;18.65;;;1.20;70.70;;;;;;4988826;28;20141;-71
2022/03/03 06:40:50;;;;;;;50.13;18.73;;;1.30;70.20;;;;;;4990128;28;20038;-71
2022/03/03 06:43:17;;;;;;;43.58;16.98;;;1.40;69.50;;;;;;4986777;28;20049;-71
2022/03/03 06:45:44;;;;;;;36.83;16.92;;;1.50;69.40;;;;;;4989889;28;20086;-71
2022/03/03 06:48:11;;;;;;;39.28;16.95;;;1.50;69.70;;;;;;4990823;28;20064;-71
2022/03/03 06:50:40;;;;;;;46.08;18.17;;;1.60;69.50;;;;;;4988650;28;20056;-71
2022/03/03 06:53:07;;;;;;;43.42;16.45;;;1.70;68.60;;;;;;4987767;28;20043;-71
2022/03/03 06:55:36;;;;;;;36.88;14.38;;;1.80;68.40;;;;;;5004231;28;20046;-71
2022/03/03 06:58:04;;;;;;;35.75;15.40;;;1.80;67.90;;;;;;4984203;28;20054;-71
2022/03/03 07:00:34;;;;;;;38.45;15.13;;;1.80;68.10;;;;;;4990496;28;20065;-71
2022/03/03 07:03:04;;;;;;;50.25;17.35;;;1.70;68.80;;;;;;5000424;28;20051;-71
2022/03/03 07:05:31;;;;;;;45.13;17.85;;;1.70;67.90;;;;;;4991311;28;20077;-71
2022/03/03 07:07:59;;;;;;;39.05;15.88;;;1.70;68.90;;;;;;4992402;28;20434;-71
2022/03/03 07:10:26;;;;;;;35.88;16.05;;;1.80;68.70;;;;;;5008436;28;20453;-71
2022/03/03 07:12:56;;;;;;;37.85;17.52;;;2.00;68.40;;;;;;4990986;28;20148;-71
2022/03/03 07:15:24;;;;;;;37.47;16.23;;;2.20;68.70;;;;;;5009467;28;21030;-71
2022/03/03 07:18:08;;;;;;;40.80;16.80;;;2.30;67.50;;;;;;4990681;28;20045;-71
2022/03/03 07:20:57;;;;;;;48.40;17.50;;;2.50;67.30;;;;;;4990577;28;20046;-71
2022/03/03 07:23:35;;;;;;;46.53;17.58;;;2.60;66.70;;;;;;4990034;28;20058;-71
2022/03/03 07:26:10;;;;;;;38.88;15.90;;;2.80;66.50;;;;;;4989116;28;20813;-71
2022/03/03 07:28:46;;;;;;;41.67;16.67;;;3.00;66.70;;;;;;4994192;28;20050;-71
2022/03/03 07:31:16;;;;;;;40.35;16.45;;;3.10;65.40;;;;;;4994448;28;20088;-71
2022/03/03 07:33:47;;;;;;;36.90;15.50;;;3.30;65.10;;;;;;4990284;28;20830;-71
2022/03/03 07:36:18;;;;;;;39.05;14.85;;;3.80;63.70;;;;;;4995272;28;20096;-71
2022/03/03 07:39:00;;;;;;;34.33;14.93;;;3.90;62.50;;;;;;4992827;28;20073;-71
2022/03/03 07:41:28;;;;;;;34.47;14.40;;;4.10;62.30;;;;;;4993553;28;20058;-72
2022/03/03 07:43:57;;;;;;;41.40;16.35;;;4.00;62.60;;;;;;4992140;28;20042;-71
2022/03/03 07:46:27;;;;;;;45.75;16.70;;;4.10;63.20;;;;;;4991780;28;20050;-72
2022/03/03 07:48:55;;;;;;;37.83;15.60;;;4.30;62.20;;;;;;4991653;28;20049;-71
2022/03/03 07:51:24;;;;;;;45.10;17.27;;;4.40;61.80;;;;;;4989948;28;20056;-71
2022/03/03 07:53:52;;;;;;;48.35;18.38;;;4.30;62.30;;;;;;4988351;28;20066;-72
2022/03/03 07:56:35;;;;;;;50.13;18.88;;;4.50;61.60;;;;;;4989253;28;20049;-72
2022/03/03 07:59:09;;;;;;;48.65;20.27;;;4.60;61.90;;;;;;4996162;28;20034;-71
2022/03/03 08:01:38;;;;;;;56.53;21.63;;;4.70;61.70;;;;;;4992576;28;20073;-71
2022/03/03 08:04:05;;;;;;;38.50;17.00;;;4.70;61.20;;;;;;4989688;28;20111;-71
2022/03/03 08:06:32;;;;;;;39.90;15.68;;;4.80;61.20;;;;;;4990296;28;20538;-72
2022/03/03 08:09:00;;;;;;;36.72;13.50;;;4.90;61.20;;;;;;4991206;28;21195;-71
2022/03/03 08:11:32;;;;;;;32.63;12.32;;;4.90;61.60;;;;;;4989810;28;20073;-71
2022/03/03 08:14:00;;;;;;;29.92;11.38;;;5.10;61.90;;;;;;4992761;28;20042;-71
2022/03/03 08:16:27;;;;;;;25.15;10.18;;;5.30;60.80;;;;;;4990773;28;20092;-72
2022/03/03 08:18:57;;;;;;;28.13;11.30;;;5.40;60.10;;;;;;4993023;28;20045;-72
2022/03/03 08:21:24;;;;;;;30.70;13.27;;;5.60;60.10;;;;;;4990140;28;20034;-71
2022/03/03 08:23:54;;;;;;;26.42;10.63;;;5.70;59.50;;;;;;4988804;28;20050;-71
2022/03/03 08:26:21;;;;;;;27.20;11.23;;;5.50;59.40;;;;;;4985480;28;20177;-71
2022/03/03 08:28:48;;;;;;;23.10;10.20;;;5.60;60.10;;;;;;4985755;28;20058;-71
2022/03/03 08:31:19;;;;;;;27.23;11.45;;;5.70;59.70;;;;;;4990271;28;20133;-71
2022/03/03 08:33:53;;;;;;;31.83;11.65;;;6.00;59.40;;;;;;4986181;28;20120;-71
2022/03/03 08:36:54;;;;;;;25.30;9.98;;;6.00;58.40;;;;;;4990718;28;20061;-71
2022/03/03 08:39:26;;;;;;;19.83;9.65;;;6.20;58.80;;;;;;4991343;28;20049;-72
2022/03/03 08:41:58;;;;;;;;;;;6.20;58.40;;;;;;5002363;28;20058;-71
2022/03/03 08:44:51;;;;;;;24.88;8.38;;;6.30;58.00;;;;;;4987485;28;19983;-71
2022/03/03 08:47:21;;;;;;;26.60;9.02;;;6.10;58.10;;;;;;4987975;28;20421;-71
2022/03/03 08:50:04;;;;;;;20.90;8.90;;;6.00;58.70;;;;;;4992744;28;20065;-71
2022/03/03 08:52:52;;;;;;;22.80;8.60;;;6.20;58.40;;;;;;4990856;28;20398;-71
2022/03/03 08:55:20;;;;;;;21.70;8.27;;;6.30;58.40;;;;;;4990621;28;20048;-72
2022/03/03 08:57:47;;;;;;;17.05;7.32;;;6.40;58.30;;;;;;4990725;28;20120;-72
2022/03/03 09:00:14;;;;;;;18.88;8.20;;;6.50;57.70;;;;;;5006195;28;20107;-71
2022/03/03 09:02:42;;;;;;;20.08;8.77;;;6.70;58.30;;;;;;4987316;28;20121;-72
2022/03/03 09:05:10;;;;;;;23.55;9.20;;;6.80;57.10;;;;;;4990337;28;20068;-71
2022/03/03 09:07:38;;;;;;;20.10;7.82;;;6.60;56.90;;;;;;4991825;28;20057;-72
2022/03/03 09:10:06;;;;;;;21.90;10.43;;;6.70;57.60;;;;;;4992374;28;20077;-72
2022/03/03 09:12:33;;;;;;;24.38;10.18;;;7.10;57.40;;;;;;4991293;28;20054;-72
2022/03/03 09:15:01;;;;;;;24.25;8.63;;;7.30;57.40;;;;;;4991760;28;20532;-71
2022/03/03 09:17:32;;;;;;;19.70;8.65;;;7.50;57.30;;;;;;4988069;28;20040;-71
2022/03/03 09:20:02;;;;;;;21.33;8.57;;;7.50;55.30;;;;;;4971057;28;20398;-71
2022/03/03 09:22:31;;;;;;;25.42;9.07;;;7.50;55.90;;;;;;5005723;28;20052;-72
2022/03/03 09:24:58;;;;;;;21.23;9.15;;;7.60;54.80;;;;;;4995054;28;20160;-72
2022/03/03 09:27:25;;;;;;;20.45;7.43;;;7.60;55.80;;;;;;5002198;28;20081;-71
2022/03/03 09:29:52;;;;;;;17.48;6.80;;;7.50;54.30;;;;;;5005635;28;20045;-71
2022/03/03 09:32:20;;;;;;;16.88;6.13;;;7.60;54.50;;;;;;5004529;28;20046;-71
2022/03/03 09:34:47;;;;;;;20.67;7.25;;;7.80;54.60;;;;;;4990874;28;20053;-71
2022/03/03 09:37:15;;;;;;;17.67;7.55;;;7.90;53.20;;;;;;4991950;28;20046;-72
2022/03/03 09:39:44;;;;;;;19.67;8.30;;;7.70;53.70;;;;;;4974563;28;20053;-71
2022/03/03 09:42:13;;;;;;;18.50;7.55;;;7.90;54.20;;;;;;4985299;28;20057;-71
2022/03/03 09:44:40;;;;;;;22.55;8.38;;;8.10;52.60;;;;;;5003198;28;20137;-71
2022/03/03 09:47:09;;;;;;;13.68;6.85;;;8.30;52.00;;;;;;4988936;28;20046;-71
2022/03/03 09:49:36;;;;;;;18.50;7.25;;;8.50;51.80;;;;;;4990514;28;20551;-71
2022/03/03 09:52:17;;;;;;;19.00;7.60;;;8.30;51.20;;;;;;4990747;28;20055;-72
2022/03/03 09:54:48;;;;;;;17.27;7.80;;;8.40;52.10;;;;;;4989443;28;20045;-72
2022/03/03 09:57:17;;;;;;;17.70;7.00;;;8.60;52.80;;;;;;4985126;28;20446;-70
2022/03/03 09:59:44;;;;;;;17.63;7.88;;;8.60;51.20;;;;;;5001169;28;20057;-70
2022/03/03 10:02:12;;;;;;;16.17;7.18;;;8.70;51.00;;;;;;4988523;28;20046;-70
2022/03/03 10:04:44;;;;;;;18.50;8.00;;;8.60;50.90;;;;;;4987307;28;20065;-70
2022/03/03 10:07:11;;;;;;;20.65;9.00;;;8.60;51.00;;;;;;4988689;28;20049;-70
2022/03/03 10:12:43;;;;;;;21.45;7.75;;;8.30;52.30;;;;;;4999735;28;20076;-70
2022/03/03 10:15:14;;;;;;;21.83;8.48;;;8.50;52.10;;;;;;4983078;28;20497;-71
2022/03/03 10:17:42;;;;;;;21.50;8.07;;;8.60;51.40;;;;;;4985777;28;20521;-70
2022/03/03 10:20:09;;;;;;;19.65;8.75;;;8.50;51.20;;;;;;4987017;28;20147;-70
2022/03/03 10:22:59;;;;;;;19.17;7.90;;;8.70;51.00;;;;;;4988766;28;20050;-70
2022/03/03 10:25:46;;;;;;;20.65;8.77;;;8.70;50.90;;;;;;4987662;28;20068;-71
2022/03/03 10:28:23;;;;;;;21.40;8.07;;;8.90;51.50;;;;;;4986030;28;20050;-72
2022/03/03 10:30:59;;;;;;;18.00;8.18;;;9.00;51.40;;;;;;4986588;28;20112;-72
2022/03/03 10:33:29;;;;;;;16.67;7.50;;;9.10;52.00;;;;;;4990655;28;20092;-73
2022/03/03 10:36:11;;;;;;;17.48;8.43;;;9.20;50.60;;;;;;4987486;28;20058;-72
2022/03/03 10:38:50;;;;;;;18.88;8.27;;;9.20;50.50;;;;;;4988338;28;20045;-73
2022/03/03 10:41:39;;;;;;;22.63;8.98;;;9.30;50.00;;;;;;4988931;28;20060;-72
2022/03/03 10:44:07;;;;;;;18.23;7.05;;;9.30;50.90;;;;;;4996526;28;20061;-73
2022/03/03 10:46:35;;;;;;;14.93;7.57;;;9.40;51.10;;;;;;4996408;28;20046;-73
2022/03/03 10:49:21;;;;;;;17.27;7.30;;;9.60;51.50;;;;;;4993133;28;20046;-72
2022/03/03 10:51:49;;;;;;;17.63;8.15;;;9.60;51.00;;;;;;4992583;28;20050;-73
2022/03/03 10:54:16;;;;;;;13.85;6.50;;;9.70;50.60;;;;;;4990875;28;20066;-71
2022/03/03 10:57:03;;;;;;;15.30;6.78;;;9.70;50.40;;;;;;4993085;28;20046;-73
2022/03/03 10:59:32;;;;;;;19.67;7.85;;;9.90;50.10;;;;;;5009767;28;20081;-73
2022/03/03 11:01:59;;;;;;;16.30;7.65;;;9.80;49.80;;;;;;5005652;28;20037;-73
2022/03/03 11:04:26;;;;;;;18.58;7.65;;;9.70;50.30;;;;;;4990702;28;20101;-73
2022/03/03 11:06:54;;;;;;;16.83;8.23;;;9.70;50.30;;;;;;4970154;28;20048;-73
2022/03/03 11:09:22;;;;;;;19.10;7.28;;;9.60;50.00;;;;;;4991093;28;20498;-72
2022/03/03 11:11:49;;;;;;;16.92;6.63;;;9.70;50.20;;;;;;4992408;28;20812;-71
2022/03/03 11:14:18;;;;;;;15.90;7.05;;;9.70;50.30;;;;;;4994222;28;20042;-71
2022/03/03 11:17:06;;;;;;;15.32;6.65;;;9.20;50.20;;;;;;5009239;28;20146;-71
2022/03/03 11:19:33;;;;;;;15.50;6.30;;;9.50;50.50;;;;;;4993537;28;20042;-71
2022/03/03 11:22:01;;;;;;;13.50;6.43;;;9.90;50.40;;;;;;4990886;28;20050;-71
2022/03/03 11:24:36;;;;;;;13.50;6.13;;;9.80;49.50;;;;;;5001971;28;20060;-71
2022/03/03 11:27:04;;;;;;;21.27;7.95;;;9.80;49.60;;;;;;4990005;28;20050;-72
2022/03/03 11:29:38;;;;;;;14.02;6.82;;;10.00;49.70;;;;;;4991222;28;20085;-72
2022/03/03 11:32:16;;;;;;;13.27;6.25;;;10.00;49.50;;;;;;4992373;28;20057;-72
2022/03/03 11:34:46;;;;;;;15.20;7.30;;;10.00;49.20;;;;;;4992479;28;20040;-72
2022/03/03 11:37:16;;;;;;;16.38;7.00;;;9.50;49.90;;;;;;4989089;28;22279;-73
2022/03/03 11:40:00;;;;;;;15.88;6.68;;;9.50;51.00;;;;;;4990563;28;20051;-74
2022/03/03 11:42:53;;;;;;;13.00;6.15;;;9.40;50.60;;;;;;4994365;28;20503;-73
2022/03/03 11:45:31;;;;;;;17.83;7.32;;;9.30;50.80;;;;;;5007624;28;20046;-73
2022/03/03 11:48:10;;;;;;;12.90;6.30;;;9.50;51.00;;;;;;4993765;28;20398;-73
2022/03/03 11:50:37;;;;;;;29.50;16.15;;;9.60;51.30;;;;;;4988437;28;20041;-74
2022/03/03 11:53:10;;;;;;;17.90;9.20;;;9.80;51.40;;;;;;5008469;28;20506;-74
2022/03/03 11:55:46;;;;;;;;;;;10.20;50.10;;;;;;5004160;28;20058;-73
2022/03/03 11:58:26;;;;;;;16.52;6.82;;;10.20;48.50;;;;;;5008481;28;20339;-72
2022/03/03 12:01:05;;;;;;;19.92;9.32;;;10.20;49.00;;;;;;4976617;28;20046;-72
2022/03/03 12:03:58;;;;;;;18.05;8.32;;;10.30;49.50;;;;;;4986388;28;20046;-73
2022/03/03 12:06:39;;;;;;;19.25;7.15;;;10.20;49.60;;;;;;4989244;28;21098;-72
2022/03/03 12:09:17;;;;;;;16.02;7.07;;;10.40;48.70;;;;;;4993757;28;20057;-72
2022/03/03 12:11:44;;;;;;;16.88;7.10;;;10.30;49.30;;;;;;4988253;28;20077;-73
2022/03/03 12:14:35;;;;;;;14.55;7.05;;;10.20;48.90;;;;;;4989333;28;23650;-72
2022/03/03 12:17:37;;;;;;;16.98;6.57;;;10.20;49.40;;;;;;4991855;28;20054;-73
2022/03/03 12:20:34;;;;;;;13.85;6.55;;;10.20;49.10;;;;;;4990377;28;20121;-73
2022/03/03 12:23:32;;;;;;;15.68;6.63;;;10.20;49.20;;;;;;4990882;28;20082;-72
2022/03/03 12:26:02;;;;;;;17.23;7.45;;;10.20;49.60;;;;;;4990657;28;20069;-71
2022/03/03 12:28:45;;;;;;;16.58;6.93;;;10.20;49.50;;;;;;4987276;28;20054;-71
2022/03/03 12:31:39;;;;;;;17.15;8.05;;;10.20;50.10;;;;;;4972461;28;22338;-71
2022/03/03 12:34:08;;;;;;;19.50;7.30;;;10.00;50.40;;;;;;4989855;28;20042;-71
2022/03/03 12:36:37;;;;;;;15.48;7.28;;;9.80;51.20;;;;;;4987231;28;20092;-72
2022/03/03 12:39:06;;;;;;;16.23;8.05;;;9.80;51.00;;;;;;5002044;28;20066;-71
2022/03/03 12:41:34;;;;;;;15.45;6.43;;;9.80;50.40;;;;;;5001919;28;20054;-71
2022/03/03 12:44:12;;;;;;;16.73;6.82;;;9.80;50.70;;;;;;4985254;28;20473;-72
2022/03/03 12:46:41;;;;;;;15.50;6.88;;;9.80;49.90;;;;;;5000038;28;20078;-73
2022/03/03 12:49:11;;;;;;;21.65;9.20;;;9.70;50.00;;;;;;4990309;28;20041;-72
2022/03/03 12:51:45;;;;;;;46.67;19.33;;;9.70;50.40;;;;;;4986541;28;20050;-72
2022/03/03 12:54:12;;;;;;;23.20;10.75;;;9.70;49.80;;;;;;4992517;28;21163;-72
2022/03/03 12:56:41;;;;;;;19.63;8.63;;;9.70;50.20;;;;;;4986286;28;20070;-72
2022/03/03 12:59:09;;;;;;;24.77;7.68;;;9.60;50.50;;;;;;4989538;28;20053;-72
2022/03/03 13:01:38;;;;;;;20.30;8.52;;;9.70;50.10;;;;;;4987217;28;20041;-72